Time;durP1;ratioP1;P1;durP2;ratioP2;P2;SDS_P1;SDS_P2;PMS_P1;PMS_P2;Temp;Humidity;BMP_temperature;BMP_pressure;BME280_temperature;BME280_humidity;BME280_pressure;Samples;Min_cycle;Max_cycle;Signal;HPM_P1;HPM_P2
2023/06/02 00:01:06;;;;;;;5.88;1.70;;;10.70;99.90;;;;;;6293952;22;20117;-94
2023/06/02 00:03:33;;;;;;;3.40;1.75;;;10.70;99.90;;;;;;6331908;22;20007;-93
2023/06/02 00:06:05;;;;;;;3.67;1.45;;;10.70;99.90;;;;;;6326116;22;19999;-93
2023/06/02 00:08:31;;;;;;;6.80;1.80;;;10.70;99.90;;;;;;6294532;22;20028;-92
2023/06/02 00:10:58;;;;;;;5.43;1.65;;;10.70;99.90;;;;;;6297656;22;20003;-94
2023/06/02 00:13:23;;;;;;;6.45;1.60;;;10.70;99.90;;;;;;6318741;22;20006;-94
2023/06/02 00:15:49;;;;;;;5.97;1.70;;;10.70;99.90;;;;;;6316902;22;20070;-93
2023/06/02 00:18:15;;;;;;;4.55;1.58;;;10.70;99.90;;;;;;6288194;22;20018;-93
2023/06/02 00:20:41;;;;;;;2.78;1.80;;;10.60;99.90;;;;;;6313849;22;20022;-93
2023/06/02 00:23:10;;;;;;;3.15;1.90;;;10.60;99.90;;;;;;6311965;22;20419;-94
2023/06/02 00:25:38;;;;;;;5.80;2.00;;;10.60;99.90;;;;;;6285894;22;20010;-94
2023/06/02 00:28:04;;;;;;;6.55;2.28;;;10.60;99.90;;;;;;6284867;22;20014;-95
2023/06/02 00:30:34;;;;;;;2.90;1.67;;;10.60;99.90;;;;;;6289726;22;20093;-94
2023/06/02 00:33:01;;;;;;;5.97;2.67;;;10.60;99.90;;;;;;6289603;22;20006;-94
2023/06/02 00:35:27;;;;;;;9.23;2.22;;;10.50;99.90;;;;;;6294850;22;20100;-92
2023/06/02 00:37:53;;;;;;;4.25;2.67;;;10.50;99.90;;;;;;6301069;22;20003;-92
2023/06/02 00:40:19;;;;;;;4.82;2.97;;;10.50;99.90;;;;;;6295896;22;20015;-92
2023/06/02 00:42:45;;;;;;;7.68;3.17;;;10.50;99.90;;;;;;6299125;22;20063;-93
2023/06/02 00:45:11;;;;;;;2.72;2.03;;;10.50;99.90;;;;;;6292478;22;20007;-95
2023/06/02 00:47:37;;;;;;;5.90;2.75;;;10.50;99.90;;;;;;6308449;22;20003;-94
2023/06/02 00:50:03;;;;;;;6.03;2.80;;;10.50;99.90;;;;;;6282248;22;20003;-93
2023/06/02 00:52:30;;;;;;;7.63;2.80;;;10.50;99.90;;;;;;6278604;22;20027;-94
2023/06/02 00:54:56;;;;;;;6.82;2.40;;;10.50;99.90;;;;;;6278293;22;20019;-93
2023/06/02 00:57:28;;;;;;;6.07;2.08;;;10.50;99.90;;;;;;6278196;22;20021;-93
2023/06/02 00:59:55;;;;;;;6.47;2.10;;;10.40;99.90;;;;;;6279487;22;20008;-95
2023/06/02 01:02:21;;;;;;;5.03;2.00;;;10.40;99.90;;;;;;6277629;22;20064;-93
2023/06/02 01:04:50;;;;;;;5.60;2.58;;;10.40;99.90;;;;;;6277134;22;20045;-95
2023/06/02 01:07:23;;;;;;;4.13;2.00;;;10.40;99.90;;;;;;6277151;22;20130;-94
2023/06/02 01:09:51;;;;;;;6.20;1.95;;;10.30;99.90;;;;;;6279096;22;20004;-95
2023/06/02 01:12:19;;;;;;;5.75;2.17;;;10.30;99.90;;;;;;6277852;22;20010;-94
2023/06/02 01:14:45;;;;;;;7.55;1.90;;;10.30;99.90;;;;;;6277410;22;20053;-94
2023/06/02 01:17:11;;;;;;;6.20;2.00;;;10.20;99.90;;;;;;6278731;22;20003;-94
2023/06/02 01:19:38;;;;;;;10.00;1.90;;;10.20;99.90;;;;;;6279279;22;20087;-94
2023/06/02 01:22:08;;;;;;;6.40;2.17;;;10.30;99.90;;;;;;6277394;22;20094;-95
2023/06/02 01:24:39;;;;;;;4.30;2.30;;;10.30;99.90;;;;;;6277071;22;20007;-95
2023/06/02 01:27:10;;;;;;;5.38;2.00;;;10.20;99.90;;;;;;6277794;22;20262;-94
2023/06/02 01:29:39;;;;;;;14.73;1.77;;;10.30;99.90;;;;;;6278704;22;20022;-95
2023/06/02 01:32:21;;;;;;;5.68;1.92;;;10.30;99.90;;;;;;6276435;22;20083;-94
2023/06/02 01:34:59;;;;;;;5.10;2.10;;;10.30;99.90;;;;;;6277596;22;20039;-93
2023/06/02 01:37:28;;;;;;;6.45;2.08;;;10.20;99.90;;;;;;6278510;22;19999;-95
2023/06/02 01:39:54;;;;;;;8.80;2.38;;;10.20;99.90;;;;;;6250697;22;20012;-95
2023/06/02 01:42:21;;;;;;;8.73;2.35;;;10.20;99.90;;;;;;6276612;22;20085;-92
2023/06/02 01:44:48;;;;;;;7.80;2.45;;;10.20;99.90;;;;;;6277101;22;20339;-94
2023/06/02 01:47:14;;;;;;;7.30;2.58;;;10.20;99.90;;;;;;6277064;22;20423;-95
2023/06/02 01:49:40;;;;;;;7.00;2.78;;;10.20;99.90;;;;;;6277221;22;20007;-95
2023/06/02 01:52:06;;;;;;;5.82;2.10;;;10.20;99.90;;;;;;6284768;22;20364;-92
2023/06/02 01:54:31;;;;;;;9.90;2.33;;;10.10;99.90;;;;;;6283685;22;20133;-92
2023/06/02 01:56:57;;;;;;;12.90;1.88;;;10.20;99.90;;;;;;6313445;22;20010;-94
2023/06/02 01:59:22;;;;;;;9.38;1.98;;;10.10;99.90;;;;;;6293560;22;19997;-93
2023/06/02 02:01:48;;;;;;;5.95;2.35;;;10.10;99.90;;;;;;6325175;22;20041;-95
2023/06/02 02:04:14;;;;;;;8.65;1.90;;;10.00;99.90;;;;;;6300984;22;20014;-92
2023/06/02 02:06:42;;;;;;;5.43;1.70;;;10.10;99.90;;;;;;6281924;22;21556;-87
2023/06/02 02:09:08;;;;;;;10.13;2.03;;;10.00;99.90;;;;;;6281651;22;20072;-92
2023/06/02 02:11:34;;;;;;;8.70;2.03;;;10.00;99.90;;;;;;6266527;22;20031;-93
2023/06/02 02:14:04;;;;;;;5.38;1.90;;;10.00;99.90;;;;;;6270290;22;20023;-93
2023/06/02 02:16:30;;;;;;;10.17;2.60;;;10.00;99.90;;;;;;6252334;22;20027;-92
2023/06/02 02:18:58;;;;;;;7.90;2.35;;;10.00;99.90;;;;;;6303761;22;20006;-93
2023/06/02 02:21:24;;;;;;;8.05;2.10;;;10.00;99.90;;;;;;6278473;22;20016;-92
2023/06/02 02:23:49;;;;;;;6.57;1.80;;;10.00;99.90;;;;;;6304438;22;19992;-93
2023/06/02 02:26:16;;;;;;;5.53;2.03;;;10.00;99.90;;;;;;6286151;22;20055;-93
2023/06/02 02:28:41;;;;;;;9.68;2.42;;;10.00;99.90;;;;;;6281666;22;19999;-95
2023/06/02 02:31:07;;;;;;;8.50;2.35;;;9.90;99.90;;;;;;6259830;22;20033;-94
2023/06/02 02:33:33;;;;;;;16.48;2.90;;;9.90;99.90;;;;;;6281110;22;20006;-94
2023/06/02 02:35:58;;;;;;;8.27;2.60;;;9.90;99.90;;;;;;6278639;22;20451;-94
2023/06/02 02:38:24;;;;;;;7.30;2.50;;;9.90;99.90;;;;;;6282484;22;20004;-93
2023/06/02 02:40:50;;;;;;;7.68;2.55;;;9.90;99.90;;;;;;6256047;22;20015;-94
2023/06/02 02:43:17;;;;;;;11.45;2.78;;;9.90;99.90;;;;;;6282892;22;20007;-95
2023/06/02 02:45:43;;;;;;;7.93;2.75;;;9.90;99.90;;;;;;6252540;22;20000;-95
2023/06/02 02:48:09;;;;;;;8.50;3.00;;;9.90;99.90;;;;;;6279914;22;20007;-94
2023/06/02 02:50:34;;;;;;;11.57;2.95;;;9.90;99.90;;;;;;6256571;22;20003;-95
2023/06/02 02:53:01;;;;;;;7.15;2.63;;;9.80;99.90;;;;;;6252469;22;19999;-94
2023/06/02 02:55:26;;;;;;;8.25;3.22;;;9.90;99.90;;;;;;6279559;22;20000;-93
2023/06/02 02:57:52;;;;;;;12.43;3.30;;;9.90;99.90;;;;;;6251962;22;20301;-92
2023/06/02 03:00:19;;;;;;;9.13;2.80;;;9.80;99.90;;;;;;6252092;22;20051;-91
2023/06/02 03:02:44;;;;;;;6.20;2.90;;;9.80;99.90;;;;;;6279588;22;20546;-93
2023/06/02 03:05:13;;;;;;;10.27;3.47;;;9.80;99.90;;;;;;6277391;22;20000;-93
2023/06/02 03:07:39;;;;;;;12.82;3.38;;;9.80;99.90;;;;;;6303485;22;20000;-94
2023/06/02 03:10:06;;;;;;;9.98;3.17;;;9.80;99.90;;;;;;6277750;22;20006;-93
2023/06/02 03:12:32;;;;;;;5.72;2.90;;;9.70;99.90;;;;;;6279414;22;20010;-93
2023/06/02 03:14:57;;;;;;;9.88;2.90;;;9.70;99.90;;;;;;6278627;22;20380;-93
2023/06/02 03:17:23;;;;;;;8.70;2.67;;;9.70;99.90;;;;;;6278617;22;20016;-93
2023/06/02 03:19:49;;;;;;;8.05;2.38;;;9.70;99.90;;;;;;6279412;22;20431;-93
2023/06/02 03:22:15;;;;;;;8.90;3.03;;;9.60;99.90;;;;;;6279533;22;20055;-94
2023/06/02 03:24:41;;;;;;;7.55;3.03;;;9.60;99.90;;;;;;6254502;22;20011;-93
2023/06/02 03:27:13;;;;;;;8.75;2.90;;;9.60;99.90;;;;;;6261352;22;20003;-94
2023/06/02 03:29:39;;;;;;;12.80;2.90;;;9.60;99.90;;;;;;6283005;22;20457;-92
2023/06/02 03:32:09;;;;;;;11.15;2.75;;;9.60;99.90;;;;;;6286490;22;20000;-92
2023/06/02 03:34:35;;;;;;;12.00;2.50;;;9.50;99.90;;;;;;6255620;22;20007;-93
2023/06/02 03:37:01;;;;;;;10.68;3.05;;;9.50;99.90;;;;;;6279812;22;19995;-93
2023/06/02 03:39:27;;;;;;;16.50;3.53;;;9.50;99.90;;;;;;6278551;22;20004;-94
2023/06/02 03:41:52;;;;;;;13.52;2.83;;;9.50;99.90;;;;;;6279277;22;20113;-94
2023/06/02 03:44:18;;;;;;;16.50;3.65;;;9.40;99.90;;;;;;6288927;22;20031;-94
2023/06/02 03:46:44;;;;;;;9.57;2.80;;;9.40;99.90;;;;;;6254472;22;20011;-94
2023/06/02 03:49:09;;;;;;;11.90;2.95;;;9.50;99.90;;;;;;6279997;22;20380;-94
2023/06/02 03:51:36;;;;;;;8.68;2.70;;;9.50;99.90;;;;;;6252528;22;20082;-94
2023/06/02 03:54:02;;;;;;;9.82;2.90;;;9.50;99.90;;;;;;6279151;22;20018;-93
2023/06/02 03:56:28;;;;;;;13.65;3.75;;;9.50;99.90;;;;;;6252937;22;20094;-93
2023/06/02 03:58:53;;;;;;;9.40;3.20;;;9.50;99.90;;;;;;6278741;22;20051;-93
2023/06/02 04:01:21;;;;;;;10.10;4.50;;;9.50;99.90;;;;;;6251726;22;20146;-93
2023/06/02 04:03:46;;;;;;;11.65;3.30;;;9.40;99.90;;;;;;6261554;22;20031;-94
2023/06/02 04:06:13;;;;;;;9.52;3.45;;;9.40;99.90;;;;;;6277281;22;20003;-93
2023/06/02 04:08:39;;;;;;;13.65;3.90;;;9.40;99.90;;;;;;6278933;22;20019;-92
2023/06/02 04:11:05;;;;;;;15.38;3.80;;;9.40;99.90;;;;;;6277659;22;20008;-93
2023/06/02 04:13:31;;;;;;;10.60;3.58;;;9.40;99.90;;;;;;6279029;22;20097;-93
2023/06/02 04:15:57;;;;;;;11.93;3.30;;;9.30;99.90;;;;;;6279071;22;20023;-93
2023/06/02 04:18:23;;;;;;;16.40;3.38;;;9.30;99.90;;;;;;6281236;22;20015;-94
2023/06/02 04:20:49;;;;;;;14.55;4.15;;;9.30;99.90;;;;;;6289624;22;20007;-93
2023/06/02 04:23:14;;;;;;;11.57;3.72;;;9.30;99.90;;;;;;6279931;22;20098;-93
2023/06/02 04:25:40;;;;;;;13.82;4.22;;;9.30;99.90;;;;;;6279752;22;20079;-92
2023/06/02 04:28:07;;;;;;;7.63;3.72;;;9.30;99.90;;;;;;6289619;22;20011;-93
2023/06/02 04:30:36;;;;;;;11.07;4.55;;;9.30;99.90;;;;;;6289164;22;20002;-93
2023/06/02 04:33:03;;;;;;;9.55;3.42;;;9.30;99.90;;;;;;6294803;22;20025;-93
2023/06/02 04:35:28;;;;;;;9.10;2.92;;;9.30;99.90;;;;;;6296261;22;20010;-93
2023/06/02 04:37:55;;;;;;;9.82;2.70;;;9.40;99.90;;;;;;6296554;22;20004;-94
2023/06/02 04:40:21;;;;;;;9.43;2.65;;;9.40;99.90;;;;;;6290690;22;20020;-93
2023/06/02 04:42:46;;;;;;;11.63;2.28;;;9.40;99.90;;;;;;6290349;22;19999;-93
2023/06/02 04:45:12;;;;;;;7.55;2.45;;;9.40;99.90;;;;;;6292667;22;20000;-94
2023/06/02 04:47:38;;;;;;;12.35;2.40;;;9.30;99.90;;;;;;6283446;22;19995;-93
2023/06/02 04:50:06;;;;;;;7.32;2.70;;;9.30;99.90;;;;;;6280529;22;20007;-93
2023/06/02 04:52:32;;;;;;;15.48;3.13;;;9.30;99.90;;;;;;6279672;22;20003;-92
2023/06/02 04:54:58;;;;;;;14.40;3.67;;;9.30;99.90;;;;;;6279188;22;20011;-93
2023/06/02 04:57:23;;;;;;;12.60;3.10;;;9.30;99.90;;;;;;6277920;22;20004;-93
2023/06/02 04:59:49;;;;;;;13.25;4.82;;;9.40;99.90;;;;;;6278258;22;20343;-93
2023/06/02 05:02:15;;;;;;;10.10;3.33;;;9.40;99.90;;;;;;6278739;22;20042;-93
2023/06/02 05:04:40;;;;;;;9.05;2.78;;;9.30;99.90;;;;;;6278681;22;20026;-93
2023/06/02 05:07:07;;;;;;;9.93;2.97;;;9.40;99.90;;;;;;6278662;22;20004;-91
2023/06/02 05:09:33;;;;;;;8.57;3.25;;;9.40;99.90;;;;;;6283158;22;20012;-93
2023/06/02 05:11:59;;;;;;;6.57;2.83;;;9.40;99.90;;;;;;6279930;22;20465;-92
2023/06/02 05:14:26;;;;;;;14.13;3.85;;;9.50;99.90;;;;;;6277871;22;20000;-93
2023/06/02 05:16:53;;;;;;;12.07;3.00;;;9.50;99.90;;;;;;6278894;22;20019;-93
2023/06/02 05:19:19;;;;;;;5.35;2.22;;;9.50;99.90;;;;;;6252100;22;20007;-93
2023/06/02 05:21:45;;;;;;;15.13;2.85;;;9.50;99.90;;;;;;6278948;22;20042;-92
2023/06/02 05:24:10;;;;;;;13.85;4.03;;;9.60;99.90;;;;;;6251563;22;20049;-94
2023/06/02 05:26:37;;;;;;;13.65;3.63;;;9.60;99.90;;;;;;6252222;22;20007;-91
2023/06/02 05:29:03;;;;;;;7.47;3.67;;;9.60;99.90;;;;;;6251726;22;20007;-93
2023/06/02 05:31:28;;;;;;;8.63;3.60;;;9.60;99.90;;;;;;6256324;22;20011;-93
2023/06/02 05:33:54;;;;;;;10.48;3.35;;;9.70;99.90;;;;;;6280797;22;20034;-91
2023/06/02 05:36:20;;;;;;;5.03;2.28;;;9.70;99.90;;;;;;6251282;22;20057;-93
2023/06/02 05:38:45;;;;;;;7.85;2.40;;;9.70;99.90;;;;;;6250792;22;20016;-92
2023/06/02 05:41:12;;;;;;;6.75;2.05;;;9.70;99.90;;;;;;6278877;22;20099;-92
2023/06/02 05:43:38;;;;;;;6.70;2.15;;;9.70;99.90;;;;;;6277805;22;20007;-94
2023/06/02 05:46:04;;;;;;;9.30;2.15;;;9.80;99.90;;;;;;6251336;22;20011;-94
2023/06/02 05:48:30;;;;;;;9.13;2.00;;;9.80;99.90;;;;;;6251617;22;20000;-93
2023/06/02 05:50:55;;;;;;;6.15;2.50;;;9.80;99.90;;;;;;6251931;22;20039;-93
2023/06/02 05:53:21;;;;;;;7.80;2.35;;;9.80;99.90;;;;;;6251964;22;20018;-94
2023/06/02 05:55:47;;;;;;;11.07;2.97;;;9.80;99.90;;;;;;6280106;22;20485;-93
2023/06/02 05:58:12;;;;;;;7.30;1.92;;;9.80;99.90;;;;;;6253789;22;20098;-92
2023/06/02 06:00:38;;;;;;;6.63;1.98;;;9.80;99.90;;;;;;6255431;22;20039;-92
2023/06/02 06:03:06;;;;;;;4.90;1.90;;;9.90;99.90;;;;;;6285439;22;20003;-94
2023/06/02 06:05:31;;;;;;;8.65;2.05;;;9.90;99.90;;;;;;6259273;22;20027;-92
2023/06/02 06:07:57;;;;;;;7.03;1.77;;;9.90;99.90;;;;;;6284141;22;20432;-93
2023/06/02 06:10:23;;;;;;;5.97;1.55;;;9.90;99.90;;;;;;6252278;22;20066;-93
2023/06/02 06:12:48;;;;;;;9.35;2.38;;;9.90;99.90;;;;;;6278015;22;20004;-92
2023/06/02 06:15:14;;;;;;;11.68;2.42;;;10.00;99.90;;;;;;6278901;22;20031;-92
2023/06/02 06:17:51;;;;;;;13.90;2.00;;;10.00;99.90;;;;;;6250818;22;20012;-92
2023/06/02 06:20:19;;;;;;;7.15;2.47;;;10.00;99.90;;;;;;6276778;22;20018;-92
2023/06/02 06:22:45;;;;;;;14.40;2.45;;;10.10;99.90;;;;;;6251656;22;20255;-94
2023/06/02 06:25:12;;;;;;;7.40;2.88;;;10.10;99.90;;;;;;6251321;22;20014;-93
2023/06/02 06:27:38;;;;;;;9.57;2.85;;;10.10;99.90;;;;;;6279308;22;20003;-95
2023/06/02 06:30:05;;;;;;;10.82;2.60;;;10.20;99.90;;;;;;6287605;22;20018;-93
2023/06/02 06:32:31;;;;;;;11.10;2.60;;;10.20;99.90;;;;;;6252550;22;19999;-93
2023/06/02 06:34:57;;;;;;;9.75;3.38;;;10.20;99.90;;;;;;6278414;22;20011;-94
2023/06/02 06:37:23;;;;;;;6.78;2.30;;;10.20;99.90;;;;;;6251517;22;20023;-93
2023/06/02 06:39:48;;;;;;;10.75;2.60;;;10.30;99.90;;;;;;6251502;22;20058;-93
2023/06/02 06:42:14;;;;;;;7.13;2.30;;;10.30;99.90;;;;;;6251962;22;20003;-93
2023/06/02 06:44:40;;;;;;;5.45;1.90;;;10.40;99.90;;;;;;6256550;22;20004;-94
2023/06/02 06:47:06;;;;;;;11.07;2.25;;;10.50;99.90;;;;;;6254234;22;20016;-94
2023/06/02 06:49:31;;;;;;;6.85;2.22;;;10.50;99.90;;;;;;6253477;22;20000;-93
2023/06/02 06:51:57;;;;;;;8.90;1.85;;;10.50;99.90;;;;;;6253648;22;20009;-93
2023/06/02 06:54:22;;;;;;;8.95;2.78;;;10.60;99.90;;;;;;6254238;22;20004;-94
2023/06/02 06:56:48;;;;;;;7.35;2.58;;;10.70;99.90;;;;;;6256678;22;20008;-94
2023/06/02 06:59:14;;;;;;;9.15;3.88;;;10.70;99.90;;;;;;6257499;22;20000;-93
2023/06/02 07:01:40;;;;;;;10.30;4.15;;;10.80;99.90;;;;;;6258445;22;20011;-93
2023/06/02 07:04:05;;;;;;;13.38;4.53;;;10.90;99.90;;;;;;6276099;22;20467;-93
2023/06/02 07:06:32;;;;;;;7.90;4.63;;;11.00;99.90;;;;;;6273163;22;20011;-95
2023/06/02 07:08:58;;;;;;;11.93;4.43;;;11.00;99.90;;;;;;6278583;22;20023;-93
2023/06/02 07:11:23;;;;;;;8.38;3.60;;;11.10;99.90;;;;;;6277093;22;20019;-94
2023/06/02 07:13:50;;;;;;;11.32;3.65;;;11.20;99.90;;;;;;6278717;22;20030;-93
2023/06/02 07:16:15;;;;;;;11.35;3.70;;;11.20;99.90;;;;;;6277806;22;19996;-93
2023/06/02 07:18:41;;;;;;;9.18;3.22;;;11.40;99.90;;;;;;6278132;22;20343;-93
2023/06/02 07:21:07;;;;;;;12.35;3.70;;;11.50;99.90;;;;;;6261880;22;20019;-93
2023/06/02 07:23:32;;;;;;;12.10;3.80;;;11.60;99.90;;;;;;6257057;22;20000;-94
2023/06/02 07:25:58;;;;;;;10.85;3.17;;;11.70;99.90;;;;;;6254639;22;20004;-93
2023/06/02 07:28:24;;;;;;;9.27;3.40;;;11.80;99.90;;;;;;6254854;22;20458;-94
2023/06/02 07:30:52;;;;;;;8.43;3.30;;;11.80;99.90;;;;;;6253546;22;20038;-93
2023/06/02 07:33:18;;;;;;;6.68;2.20;;;11.80;99.90;;;;;;6253539;22;20003;-93
2023/06/02 07:35:44;;;;;;;9.30;2.40;;;11.70;99.90;;;;;;6253076;22;20003;-93
2023/06/02 07:38:10;;;;;;;7.63;2.20;;;11.60;99.90;;;;;;6256620;22;20008;-93
2023/06/02 07:40:35;;;;;;;8.68;2.20;;;11.50;99.90;;;;;;6258219;22;20046;-92
2023/06/02 07:43:01;;;;;;;9.95;2.88;;;11.60;99.90;;;;;;6265747;22;20007;-93
2023/06/02 07:45:27;;;;;;;14.80;2.65;;;11.50;99.90;;;;;;6269365;22;19991;-93
2023/06/02 07:47:53;;;;;;;8.38;1.95;;;11.50;99.90;;;;;;6270269;22;20007;-93
2023/06/02 07:50:19;;;;;;;9.85;2.30;;;11.60;99.90;;;;;;6261172;22;20004;-95
2023/06/02 07:52:45;;;;;;;10.88;2.45;;;11.70;99.90;;;;;;6254893;22;20000;-95
2023/06/02 07:55:12;;;;;;;7.30;2.20;;;11.70;99.90;;;;;;6253011;22;20094;-94
2023/06/02 07:57:37;;;;;;;9.95;2.30;;;11.80;99.90;;;;;;6252916;22;20050;-94
2023/06/02 08:00:18;;;;;;;6.57;2.08;;;11.90;99.90;;;;;;6249309;22;20431;-92
2023/06/02 08:02:46;;;;;;;12.80;2.33;;;12.00;99.90;;;;;;6251062;22;20000;-94
2023/06/02 08:05:12;;;;;;;8.52;2.40;;;12.10;99.90;;;;;;6262187;22;19999;-94
2023/06/02 08:07:39;;;;;;;8.75;3.20;;;12.20;99.90;;;;;;6256374;22;20038;-94
2023/06/02 08:10:06;;;;;;;12.95;2.38;;;12.30;99.90;;;;;;6252289;22;20090;-94
2023/06/02 08:12:32;;;;;;;11.40;2.90;;;12.40;99.90;;;;;;6276950;22;20434;-93
2023/06/02 08:14:57;;;;;;;10.35;2.47;;;12.60;99.90;;;;;;6252271;22;20091;-95
2023/06/02 08:17:29;;;;;;;15.82;2.83;;;12.80;99.40;;;;;;6252944;22;20050;-94
2023/06/02 08:19:59;;;;;;;8.45;2.60;;;13.00;98.80;;;;;;6253044;22;20007;-95
2023/06/02 08:22:27;;;;;;;9.35;2.10;;;13.10;98.30;;;;;;6251606;22;20011;-93
2023/06/02 08:24:53;;;;;;;6.72;2.20;;;13.10;97.80;;;;;;6252978;22;20037;-92
2023/06/02 08:27:20;;;;;;;8.88;2.03;;;13.20;97.40;;;;;;6250988;22;20538;-92
2023/06/02 08:29:46;;;;;;;16.63;2.15;;;13.20;97.10;;;;;;6250724;22;20459;-93
2023/06/02 08:32:12;;;;;;;16.63;2.55;;;13.30;97.00;;;;;;6250594;22;20317;-93
2023/06/02 08:34:41;;;;;;;8.90;3.05;;;13.30;96.70;;;;;;6250938;22;20011;-92
2023/06/02 08:37:15;;;;;;;8.52;2.22;;;13.40;96.50;;;;;;6254928;22;20006;-94
2023/06/02 08:39:41;;;;;;;8.85;2.40;;;13.50;95.70;;;;;;6281147;22;20015;-93
2023/06/02 08:42:08;;;;;;;7.25;2.20;;;13.60;95.10;;;;;;6250239;22;20008;-94
2023/06/02 08:44:35;;;;;;;6.65;2.28;;;13.60;94.50;;;;;;6251281;22;19999;-93
2023/06/02 08:47:02;;;;;;;6.60;2.65;;;13.70;94.20;;;;;;6251351;22;20014;-92
2023/06/02 08:49:29;;;;;;;6.93;2.38;;;13.80;93.90;;;;;;6252669;22;19996;-95
2023/06/02 08:52:01;;;;;;;7.80;1.98;;;14.00;93.50;;;;;;6251785;22;20062;-93
2023/06/02 08:54:27;;;;;;;8.70;2.08;;;14.10;92.80;;;;;;6252029;22;20010;-94
2023/06/02 08:56:57;;;;;;;12.27;2.63;;;14.10;92.60;;;;;;6254085;22;20003;-93
2023/06/02 08:59:24;;;;;;;9.55;2.28;;;14.10;92.30;;;;;;6269423;22;20037;-94
2023/06/02 09:01:50;;;;;;;7.38;2.13;;;14.10;92.20;;;;;;6274236;22;20031;-95
2023/06/02 09:04:17;;;;;;;12.50;2.13;;;14.20;92.40;;;;;;6272323;22;20004;-94
2023/06/02 09:06:43;;;;;;;8.90;2.42;;;14.30;92.10;;;;;;6269989;22;19992;-94
2023/06/02 09:09:10;;;;;;;13.07;2.30;;;14.40;91.40;;;;;;6266785;22;20364;-94
2023/06/02 09:11:35;;;;;;;7.28;2.38;;;14.30;91.10;;;;;;6262408;22;20053;-94
2023/06/02 09:14:18;;;;;;;7.97;2.08;;;14.40;91.10;;;;;;6260284;22;20366;-94
2023/06/02 09:16:44;;;;;;;8.65;2.28;;;14.60;90.80;;;;;;6257603;22;20015;-94
2023/06/02 09:19:10;;;;;;;9.00;2.10;;;14.80;90.60;;;;;;6252069;22;20011;-95
2023/06/02 09:21:37;;;;;;;9.73;2.40;;;14.90;90.10;;;;;;6251948;22;20012;-94
2023/06/02 09:24:03;;;;;;;17.83;3.00;;;15.00;89.90;;;;;;6250782;22;20007;-95
2023/06/02 09:26:30;;;;;;;11.90;2.25;;;15.20;89.10;;;;;;6251194;22;20015;-94
2023/06/02 09:29:12;;;;;;;10.65;2.00;;;15.30;88.10;;;;;;6252907;22;20006;-94
2023/06/02 09:31:55;;;;;;;12.75;2.55;;;15.40;87.20;;;;;;6252253;22;20000;-95
2023/06/02 09:34:24;;;;;;;9.27;2.53;;;15.50;86.80;;;;;;6251884;22;20011;-94
2023/06/02 09:36:51;;;;;;;6.30;2.00;;;15.70;85.90;;;;;;6251000;22;20074;-95
2023/06/02 09:39:38;;;;;;;12.95;2.13;;;15.80;85.10;;;;;;6248085;22;20008;-93
2023/06/02 09:42:06;;;;;;;8.50;1.98;;;15.80;83.90;;;;;;6250670;22;20016;-93
2023/06/02 09:44:32;;;;;;;13.38;2.50;;;15.90;83.40;;;;;;6251732;22;19999;-94
2023/06/02 09:47:00;;;;;;;6.85;2.22;;;15.90;82.70;;;;;;6282903;22;20000;-94
2023/06/02 09:49:25;;;;;;;5.68;2.00;;;16.00;82.20;;;;;;6251457;22;20006;-93
2023/06/02 09:51:51;;;;;;;7.25;1.80;;;16.20;81.70;;;;;;6250019;22;20027;-93
2023/06/02 09:54:19;;;;;;;7.30;1.85;;;16.30;81.30;;;;;;6251502;22;19999;-93
2023/06/02 09:56:46;;;;;;;8.02;2.10;;;16.40;79.80;;;;;;6249596;22;20091;-94
2023/06/02 09:59:12;;;;;;;12.93;2.67;;;16.40;79.60;;;;;;6251387;22;20365;-92
2023/06/02 10:01:37;;;;;;;11.07;2.28;;;16.50;79.40;;;;;;6249998;22;20114;-92
2023/06/02 10:04:05;;;;;;;12.93;2.85;;;16.70;78.70;;;;;;6251394;22;20011;-93
2023/06/02 10:07:06;;;;;;;8.88;2.28;;;16.70;77.80;;;;;;6255809;22;20475;-93
2023/06/02 10:09:57;;;;;;;9.98;2.17;;;16.80;78.20;;;;;;6260254;22;20032;-92
2023/06/02 10:12:38;;;;;;;9.63;2.88;;;16.90;77.90;;;;;;6285520;22;20008;-94
2023/06/02 10:15:22;;;;;;;15.15;2.45;;;17.20;77.90;;;;;;6285561;22;20012;-92
2023/06/02 10:18:10;;;;;;;10.38;2.67;;;17.30;77.20;;;;;;6285021;22;20375;-93
2023/06/02 10:20:44;;;;;;;7.95;2.13;;;17.40;75.50;;;;;;6287901;22;20113;-93
2023/06/02 10:23:29;;;;;;;8.55;1.95;;;17.40;75.00;;;;;;6286943;22;20003;-93
2023/06/02 10:26:11;;;;;;;5.55;1.98;;;17.40;73.50;;;;;;6280062;22;20003;-94
2023/06/02 10:28:37;;;;;;;11.18;2.38;;;17.40;74.20;;;;;;6287344;22;20007;-94
2023/06/02 10:31:11;;;;;;;11.95;2.50;;;17.50;74.30;;;;;;6287870;22;20010;-94
2023/06/02 10:33:48;;;;;;;13.40;2.30;;;17.60;73.90;;;;;;6287917;22;20010;-94
2023/06/02 10:36:17;;;;;;;10.95;2.97;;;17.70;73.50;;;;;;6286298;22;20025;-92
2023/06/02 10:38:44;;;;;;;13.43;2.28;;;17.90;73.40;;;;;;6287264;22;20015;-94
2023/06/02 10:41:10;;;;;;;5.00;1.77;;;18.20;73.40;;;;;;6288926;22;20021;-93
2023/06/02 10:43:35;;;;;;;10.02;2.63;;;18.40;72.70;;;;;;6317665;22;20081;-94
2023/06/02 10:46:21;;;;;;;5.90;2.00;;;18.70;72.10;;;;;;6294287;22;20007;-92
2023/06/02 10:48:48;;;;;;;9.73;2.10;;;18.90;71.10;;;;;;6284164;22;20003;-94
2023/06/02 10:51:14;;;;;;;7.20;2.03;;;19.00;70.00;;;;;;6283482;22;20019;-95
2023/06/02 10:53:58;;;;;;;11.48;2.05;;;19.10;69.20;;;;;;6287376;22;20094;-95
2023/06/02 10:56:39;;;;;;;14.20;2.65;;;19.10;69.20;;;;;;6285448;22;20060;-94
2023/06/02 10:59:05;;;;;;;;;;;19.40;68.90;;;;;;6285536;22;20030;-93
2023/06/02 11:01:51;;;;;;;8.88;2.05;;;19.60;68.30;;;;;;6303745;22;19898;-96
2023/06/02 11:04:27;;;;;;;8.13;2.55;;;19.70;67.40;;;;;;6303088;22;19999;-94
2023/06/02 11:07:21;;;;;;;12.25;3.10;;;19.70;66.90;;;;;;6297028;22;20003;-93
2023/06/02 11:09:49;;;;;;;8.13;2.28;;;19.70;66.90;;;;;;6298498;22;20007;-95
2023/06/02 11:12:15;;;;;;;13.43;2.45;;;19.80;67.00;;;;;;6288516;22;19999;-95
2023/06/02 11:15:03;;;;;;;9.05;3.00;;;20.00;67.40;;;;;;6286866;22;20006;-95
2023/06/02 11:17:33;;;;;;;10.52;2.13;;;20.00;66.00;;;;;;6284949;22;20072;-95
2023/06/02 11:19:59;;;;;;;13.70;2.35;;;20.10;66.00;;;;;;6311853;22;20003;-95
2023/06/02 11:22:27;;;;;;;7.38;2.20;;;20.10;66.10;;;;;;6286320;22;20014;-95
2023/06/02 11:24:53;;;;;;;9.85;2.30;;;20.20;66.00;;;;;;6286569;22;19999;-95
2023/06/02 11:27:20;;;;;;;8.75;2.15;;;20.30;65.50;;;;;;6288337;22;20008;-96
2023/06/02 11:30:02;;;;;;;10.95;2.28;;;20.50;65.00;;;;;;6291135;22;20022;-95
2023/06/02 11:32:28;;;;;;;8.63;2.10;;;20.60;64.60;;;;;;6283451;22;20011;-94
2023/06/02 11:35:00;;;;;;;16.77;3.00;;;20.50;64.20;;;;;;6286881;22;20006;-94
2023/06/02 11:37:26;;;;;;;8.05;2.13;;;20.50;64.20;;;;;;6258656;22;20008;-94
2023/06/02 11:39:56;;;;;;;8.05;2.42;;;20.70;64.30;;;;;;6284991;22;20445;-96
2023/06/02 11:42:41;;;;;;;9.98;2.80;;;21.00;63.80;;;;;;6284512;22;20007;-94
2023/06/02 11:45:18;;;;;;;11.05;2.63;;;21.10;62.40;;;;;;6284388;22;20010;-92
2023/06/02 11:47:46;;;;;;;9.23;2.55;;;21.20;62.00;;;;;;6290673;22;19999;-94
2023/06/02 11:50:20;;;;;;;11.38;2.70;;;21.10;61.60;;;;;;6295035;22;20007;-95
2023/06/02 11:52:46;;;;;;;11.63;2.25;;;21.10;62.40;;;;;;6297209;22;20003;-95
2023/06/02 11:55:12;;;;;;;7.70;2.22;;;21.20;61.80;;;;;;6303440;22;20029;-95
2023/06/02 11:57:38;;;;;;;12.02;2.85;;;21.30;60.90;;;;;;6307857;22;20006;-95
2023/06/02 12:00:15;;;;;;;13.32;2.50;;;21.40;60.70;;;;;;6310415;22;19999;-96
2023/06/02 12:02:53;;;;;;;11.93;3.15;;;21.40;60.30;;;;;;6336421;22;20015;-96
2023/06/02 12:05:36;;;;;;;6.15;2.50;;;21.40;60.90;;;;;;6335137;22;19999;-95
2023/06/02 12:08:24;;;;;;;13.10;2.22;;;21.50;61.00;;;;;;6308752;22;20011;-96
2023/06/02 12:10:51;;;;;;;10.63;2.60;;;21.70;60.20;;;;;;6284802;22;19998;-95
2023/06/02 12:13:32;;;;;;;8.13;1.88;;;21.90;59.80;;;;;;6308726;22;19996;-95
2023/06/02 12:16:20;;;;;;;9.82;2.15;;;22.00;59.70;;;;;;6298939;22;20027;-94
2023/06/02 12:18:47;;;;;;;11.00;2.20;;;22.10;59.20;;;;;;6263537;22;20027;-94
2023/06/02 12:21:27;;;;;;;12.65;2.30;;;22.10;59.00;;;;;;6259695;22;20042;-95
2023/06/02 12:23:59;;;;;;;11.32;1.90;;;22.10;58.40;;;;;;6284764;22;20008;-96
2023/06/02 12:26:25;;;;;;;9.50;2.50;;;22.00;58.40;;;;;;6243870;22;20007;-95
2023/06/02 12:28:55;;;;;;;7.22;2.00;;;22.10;58.50;;;;;;6300391;22;19996;-96
2023/06/02 12:31:28;;;;;;;11.30;2.05;;;22.10;58.20;;;;;;6300711;22;19994;-96
2023/06/02 12:33:58;;;;;;;10.40;2.58;;;22.20;58.30;;;;;;6240329;22;20011;-95
2023/06/02 12:36:25;;;;;;;7.72;2.33;;;22.40;58.10;;;;;;6264381;22;20004;-95
2023/06/02 12:38:52;;;;;;;9.93;2.70;;;22.50;58.20;;;;;;6269432;22;20004;-95
2023/06/02 12:41:17;;;;;;;9.32;2.47;;;22.70;58.00;;;;;;6264067;22;20019;-96
2023/06/02 12:43:43;;;;;;;15.18;2.50;;;22.80;57.60;;;;;;6254178;22;19999;-95
2023/06/02 12:46:13;;;;;;;9.00;2.10;;;23.00;57.40;;;;;;6260431;22;20004;-96
2023/06/02 12:48:39;;;;;;;12.20;2.30;;;23.30;57.20;;;;;;6261268;22;19991;-95
2023/06/02 12:51:06;;;;;;;10.43;2.67;;;23.50;56.70;;;;;;6258174;22;20067;-96